createdAt,value
2023-03-10T00:00:06.004Z,10.31
2023-03-10T00:02:34.986Z,10.30
2023-03-10T00:05:04.754Z,10.30
2023-03-10T00:07:33.024Z,10.25
2023-03-10T00:10:00.896Z,10.18
2023-03-10T00:12:28.706Z,10.22
2023-03-10T00:14:56.582Z,10.21
2023-03-10T00:17:24.228Z,10.21
2023-03-10T00:19:51.938Z,10.13
2023-03-10T00:22:20.838Z,10.14
2023-03-10T00:24:48.491Z,10.14
2023-03-10T00:27:16.362Z,10.03
2023-03-10T00:29:44.019Z,10.02
2023-03-10T00:32:11.609Z,10.06
2023-03-10T00:34:39.441Z,10.03
2023-03-10T00:37:07.273Z,10.08
2023-03-10T00:39:36.349Z,10.04
2023-03-10T00:42:04.222Z,10.14
2023-03-10T00:44:31.817Z,10.14
2023-03-10T00:46:59.439Z,10.13
2023-03-10T00:49:27.062Z,10.09
2023-03-10T00:51:54.661Z,10.02
2023-03-10T00:54:22.302Z,10.20
2023-03-10T00:56:51.298Z,10.15
2023-03-10T00:59:18.880Z,10.13
2023-03-10T01:01:46.655Z,10.18
2023-03-10T01:04:15.881Z,10.04
2023-03-10T01:06:45.180Z,10.02
2023-03-10T01:09:12.786Z,10.20
2023-03-10T01:11:40.389Z,10.18
2023-03-10T01:14:11.699Z,10.13
2023-03-10T01:16:39.308Z,10.09
2023-03-10T01:19:06.951Z,10.01
2023-03-10T01:21:36.423Z,10.02
2023-03-10T01:24:05.173Z,10.09
2023-03-10T01:26:33.504Z,10.02
2023-03-10T01:29:01.094Z,10.04
2023-03-10T01:31:30.119Z,10.06
2023-03-10T01:33:57.797Z,10.01
2023-03-10T01:36:27.537Z,9.99
2023-03-10T01:38:56.499Z,9.97
2023-03-10T01:41:25.831Z,9.94
2023-03-10T01:43:54.672Z,9.97
2023-03-10T01:46:38.606Z,9.98
2023-03-10T01:49:10.336Z,9.96
2023-03-10T01:51:39.226Z,9.95
2023-03-10T01:54:08.307Z,9.98
2023-03-10T01:56:36.312Z,9.94
2023-03-10T01:59:04.246Z,9.92
2023-03-10T02:01:33.009Z,9.86
2023-03-10T02:04:04.816Z,9.83
2023-03-10T02:06:33.428Z,9.87
2023-03-10T02:09:02.735Z,9.83
2023-03-10T02:11:30.683Z,9.77
2023-03-10T02:13:58.394Z,9.81
2023-03-10T02:16:26.097Z,9.84
2023-03-10T02:18:53.813Z,9.85
2023-03-10T02:21:28.805Z,9.84
2023-03-10T02:24:01.602Z,9.73
2023-03-10T02:26:37.013Z,9.79
2023-03-10T02:29:08.520Z,9.82
2023-03-10T02:31:37.124Z,9.73
2023-03-10T02:34:06.633Z,9.63
2023-03-10T02:36:34.329Z,9.64
2023-03-10T02:39:01.925Z,9.60
2023-03-10T02:41:31.853Z,9.65
2023-03-10T02:44:01.270Z,9.62
2023-03-10T02:46:30.262Z,9.57
2023-03-10T02:49:00.298Z,9.58
2023-03-10T02:51:31.016Z,9.57
2023-03-10T02:54:00.311Z,9.56
2023-03-10T02:56:27.934Z,9.56
2023-03-10T02:58:55.460Z,9.55
2023-03-10T03:01:23.133Z,9.58
2023-03-10T03:03:52.138Z,9.49
2023-03-10T03:06:19.765Z,9.56
2023-03-10T03:08:47.388Z,9.63
2023-03-10T03:11:15.290Z,9.53
2023-03-10T03:13:43.290Z,9.56
2023-03-10T03:16:11.449Z,9.54
2023-03-10T03:18:39.350Z,9.49
2023-03-10T03:21:11.086Z,9.51
2023-03-10T03:23:39.355Z,9.44
2023-03-10T03:26:14.103Z,9.44
2023-03-10T03:28:42.369Z,9.52
2023-03-10T03:31:14.766Z,9.49
2023-03-10T03:33:42.397Z,9.44
2023-03-10T03:36:11.421Z,9.41
2023-03-10T03:38:39.045Z,9.37
2023-03-10T03:41:06.974Z,9.35
2023-03-10T03:43:34.572Z,9.42
2023-03-10T03:46:02.461Z,9.47
2023-03-10T03:48:30.044Z,9.35
2023-03-10T03:50:57.615Z,9.34
2023-03-10T03:53:26.537Z,9.35
2023-03-10T03:55:54.063Z,9.43
2023-03-10T03:58:21.752Z,9.30
2023-03-10T04:00:51.681Z,9.46
2023-03-10T04:03:19.598Z,9.41
2023-03-10T04:05:47.393Z,9.35
2023-03-10T04:08:15.521Z,9.28
2023-03-10T04:10:44.779Z,9.30
2023-03-10T04:13:12.336Z,9.36
2023-03-10T04:15:39.926Z,9.27
2023-03-10T04:18:08.211Z,9.24
2023-03-10T04:20:35.804Z,9.23
2023-03-10T04:23:04.137Z,9.33
2023-03-10T04:25:32.065Z,9.29
2023-03-10T04:28:00.975Z,9.33
2023-03-10T04:30:29.749Z,9.40
2023-03-10T04:32:59.119Z,9.25
2023-03-10T04:35:26.854Z,9.31
2023-03-10T04:37:54.417Z,9.36
2023-03-10T04:40:22.594Z,9.35
2023-03-10T04:42:50.184Z,9.48
2023-03-10T04:45:19.233Z,9.46
2023-03-10T04:47:46.806Z,9.44
2023-03-10T04:50:17.433Z,9.49
2023-03-10T04:52:45.434Z,9.39
2023-03-10T04:55:13.787Z,9.27
2023-03-10T04:57:41.457Z,9.27
2023-03-10T05:00:12.664Z,9.37
2023-03-10T05:02:41.715Z,9.46
2023-03-10T05:05:10.202Z,9.35
2023-03-10T05:07:38.185Z,9.50
2023-03-10T05:10:06.836Z,9.41
2023-03-10T05:12:34.422Z,9.47
2023-03-10T05:15:02.042Z,9.54
2023-03-10T05:17:30.175Z,9.39
2023-03-10T05:19:59.731Z,9.42
2023-03-10T05:22:27.387Z,9.41
2023-03-10T05:24:54.956Z,9.43
2023-03-10T05:27:22.543Z,9.39
2023-03-10T05:29:50.077Z,9.41
2023-03-10T05:32:17.793Z,9.34
2023-03-10T05:34:45.404Z,9.33
2023-03-10T05:37:14.289Z,9.34
2023-03-10T05:39:43.710Z,9.40
2023-03-10T05:42:12.324Z,9.43
2023-03-10T05:44:40.000Z,9.32
2023-03-10T05:47:08.026Z,9.34
2023-03-10T05:49:38.524Z,9.27
2023-03-10T05:52:07.079Z,9.29
2023-03-10T05:54:36.048Z,9.29
2023-03-10T05:57:03.679Z,9.23
2023-03-10T05:59:31.409Z,9.28
2023-03-10T06:01:58.929Z,9.29
2023-03-10T06:04:28.326Z,9.23
2023-03-10T06:06:56.643Z,9.09
2023-03-10T06:09:24.186Z,9.16
2023-03-10T06:11:53.066Z,9.19
2023-03-10T06:14:20.971Z,9.34
2023-03-10T06:16:51.605Z,9.29
2023-03-10T06:19:19.339Z,9.27
2023-03-10T06:21:46.934Z,9.18
2023-03-10T06:24:14.710Z,9.25
2023-03-10T06:26:42.614Z,9.34
2023-03-10T06:29:11.583Z,9.24
2023-03-10T06:31:39.347Z,9.20
2023-03-10T06:34:06.927Z,9.26
2023-03-10T06:36:34.457Z,9.32
2023-03-10T06:39:02.128Z,9.24
2023-03-10T06:41:29.826Z,9.19
2023-03-10T06:43:57.464Z,9.28
2023-03-10T06:46:26.608Z,9.20
2023-03-10T06:48:54.176Z,9.28
2023-03-10T06:51:22.181Z,9.25
2023-03-10T06:53:50.136Z,9.34
2023-03-10T06:56:19.000Z,9.29
2023-03-10T06:58:46.800Z,9.43
2023-03-10T07:01:23.150Z,9.40
2023-03-10T07:03:52.214Z,9.50
2023-03-10T07:06:19.923Z,9.36
2023-03-10T07:08:47.610Z,9.45
2023-03-10T07:11:15.366Z,9.46
2023-03-10T07:13:43.162Z,9.50
2023-03-10T07:16:10.889Z,9.50
2023-03-10T07:18:38.535Z,9.39
2023-03-10T07:21:09.842Z,9.45
2023-03-10T07:23:37.538Z,9.44
2023-03-10T07:26:08.506Z,9.42
2023-03-10T07:28:36.793Z,9.38
2023-03-10T07:31:05.504Z,9.35
2023-03-10T07:33:33.397Z,9.16
2023-03-10T07:36:05.374Z,9.12
2023-03-10T07:38:34.669Z,9.26
2023-03-10T07:41:02.539Z,9.30
2023-03-10T07:43:30.953Z,9.39
2023-03-10T07:45:58.991Z,9.32
2023-03-10T07:48:26.794Z,9.15
2023-03-10T07:50:58.178Z,9.01
2023-03-10T07:53:26.778Z,8.93
2023-03-10T07:55:55.863Z,9.02
2023-03-10T07:58:24.284Z,9.05
2023-03-10T08:00:55.355Z,9.02
2023-03-10T08:03:23.158Z,9.16
2023-03-10T08:05:50.810Z,9.14
2023-03-10T08:08:18.843Z,9.06
2023-03-10T08:10:46.559Z,9.12
2023-03-10T08:13:15.789Z,9.07
2023-03-10T08:15:43.497Z,9.13
2023-03-10T08:18:11.159Z,9.18
2023-03-10T08:20:40.573Z,9.29
2023-03-10T08:23:08.383Z,9.39
2023-03-10T08:25:35.975Z,9.31
2023-03-10T08:28:03.729Z,9.21
2023-03-10T08:30:32.697Z,9.32
2023-03-10T08:33:00.354Z,9.51
2023-03-10T08:35:28.038Z,9.45
2023-03-10T08:37:55.646Z,9.73
2023-03-10T08:40:23.372Z,9.83
2023-03-10T08:42:50.979Z,9.97
2023-03-10T08:45:19.288Z,10.00
2023-03-10T08:47:48.273Z,9.94
2023-03-10T08:50:15.852Z,9.99
2023-03-10T08:52:43.600Z,9.93
2023-03-10T08:55:12.105Z,9.87
2023-03-10T08:57:39.730Z,9.88
2023-03-10T09:00:10.521Z,9.83
2023-03-10T09:02:38.116Z,9.76
2023-03-10T09:05:08.051Z,9.74
2023-03-10T09:07:35.682Z,9.90
2023-03-10T09:10:03.334Z,9.92
2023-03-10T09:12:36.082Z,10.03
2023-03-10T09:15:07.238Z,10.11
2023-03-10T09:17:34.911Z,10.16
2023-03-10T09:20:02.482Z,10.25
2023-03-10T09:22:31.415Z,10.14
2023-03-10T09:25:00.758Z,10.18
2023-03-10T09:27:28.490Z,10.21
2023-03-10T09:29:56.765Z,10.11
2023-03-10T09:32:25.699Z,10.00
2023-03-10T09:34:53.297Z,9.99
2023-03-10T09:37:20.872Z,9.90
2023-03-10T09:39:49.824Z,9.96
2023-03-10T09:42:37.896Z,9.97
2023-03-10T09:45:17.912Z,10.05
2023-03-10T09:47:53.154Z,10.14
2023-03-10T09:50:29.417Z,10.38
2023-03-10T09:53:00.509Z,10.42
2023-03-10T09:55:33.304Z,10.49
2023-03-10T09:58:03.094Z,10.26
2023-03-10T10:00:35.421Z,10.11
2023-03-10T10:03:09.054Z,10.13
2023-03-10T10:05:38.888Z,10.22
2023-03-10T10:08:16.018Z,10.22
2023-03-10T10:10:48.127Z,10.36
2023-03-10T10:13:17.403Z,10.28
2023-03-10T10:15:46.781Z,10.45
2023-03-10T10:18:20.834Z,10.60
2023-03-10T10:20:51.153Z,10.78
2023-03-10T10:23:26.394Z,10.98
2023-03-10T10:25:56.797Z,11.12
2023-03-10T10:28:28.192Z,11.23
2023-03-10T10:31:11.094Z,11.47
2023-03-10T10:33:59.166Z,11.30
2023-03-10T10:36:29.368Z,11.24
2023-03-10T10:38:57.879Z,11.45
2023-03-10T10:41:29.826Z,11.65
2023-03-10T10:44:01.212Z,11.42
2023-03-10T10:46:30.296Z,11.54
2023-03-10T10:49:08.966Z,11.57
2023-03-10T10:51:38.560Z,11.79
2023-03-10T10:54:21.819Z,11.76
2023-03-10T10:56:54.927Z,11.84
2023-03-10T10:59:23.622Z,11.79
2023-03-10T11:01:53.567Z,11.81
2023-03-10T11:04:25.363Z,11.93
2023-03-10T11:06:53.972Z,11.76
2023-03-10T11:09:23.272Z,11.99
2023-03-10T11:12:03.481Z,11.83
2023-03-10T11:14:38.218Z,12.10
2023-03-10T11:17:11.136Z,11.99
2023-03-10T11:19:50.988Z,11.78
2023-03-10T11:22:26.194Z,11.68
2023-03-10T11:24:58.080Z,11.39
2023-03-10T11:27:34.592Z,11.32
2023-03-10T11:30:11.256Z,11.20
2023-03-10T11:32:46.118Z,11.16
2023-03-10T11:35:21.014Z,11.10
2023-03-10T11:37:52.834Z,11.21
2023-03-10T11:40:24.454Z,11.19
2023-03-10T11:42:56.728Z,11.19
2023-03-10T11:45:28.948Z,11.49
2023-03-10T11:48:08.775Z,11.36
2023-03-10T11:50:42.590Z,11.43
2023-03-10T11:53:14.715Z,11.39
2023-03-10T11:55:42.312Z,11.27
2023-03-10T11:58:19.897Z,11.30
2023-03-10T12:00:47.745Z,11.12
2023-03-10T12:03:18.373Z,11.15
2023-03-10T12:05:49.946Z,10.87
2023-03-10T12:08:17.919Z,10.74
2023-03-10T12:10:45.537Z,10.73
2023-03-10T12:13:23.307Z,10.71
2023-03-10T12:15:52.143Z,10.65
2023-03-10T12:18:19.970Z,10.67
2023-03-10T12:20:47.552Z,10.66
2023-03-10T12:23:31.821Z,10.65
2023-03-10T12:25:59.491Z,10.59
2023-03-10T12:28:29.424Z,10.70
2023-03-10T12:30:58.477Z,10.72
2023-03-10T12:33:41.942Z,10.62
2023-03-10T12:36:11.676Z,10.48
2023-03-10T12:38:43.815Z,10.27
2023-03-10T12:41:11.553Z,10.29
2023-03-10T12:43:55.690Z,10.25
2023-03-10T12:46:27.544Z,10.24
2023-03-10T12:49:05.454Z,10.25
2023-03-10T12:51:37.645Z,10.38
2023-03-10T12:54:30.112Z,10.31
2023-03-10T12:57:04.177Z,9.99
2023-03-10T12:59:40.082Z,9.95
2023-03-10T13:02:20.034Z,9.85
2023-03-10T13:04:47.783Z,9.89
2023-03-10T13:07:16.818Z,10.09
2023-03-10T13:09:47.265Z,10.00
2023-03-10T13:12:21.678Z,10.08
2023-03-10T13:14:55.381Z,10.06
2023-03-10T13:17:25.643Z,10.15
2023-03-10T13:20:09.475Z,10.21
2023-03-10T13:22:37.009Z,10.10
2023-03-10T13:25:08.026Z,9.99
2023-03-10T13:27:36.053Z,10.04
2023-03-10T13:30:11.952Z,10.15
2023-03-10T13:32:40.008Z,10.06
2023-03-10T13:35:18.054Z,10.17
2023-03-10T13:37:45.668Z,10.20
2023-03-10T13:40:17.552Z,10.31
2023-03-10T13:42:47.982Z,10.30
2023-03-10T13:45:22.736Z,10.08
2023-03-10T13:47:52.226Z,10.17
2023-03-10T13:50:20.119Z,10.11
2023-03-10T13:52:54.072Z,10.08
2023-03-10T13:55:21.683Z,10.18
2023-03-10T13:57:49.418Z,10.23
2023-03-10T14:00:20.746Z,10.14
2023-03-10T14:02:49.751Z,10.18
2023-03-10T14:05:39.752Z,10.26
2023-03-10T14:08:07.702Z,10.32
2023-03-10T14:10:35.261Z,10.33
2023-03-10T14:13:02.812Z,10.40
2023-03-10T14:15:38.594Z,10.47
2023-03-10T14:18:21.100Z,10.42
2023-03-10T14:20:49.168Z,10.29
2023-03-10T14:23:28.013Z,10.31
2023-03-10T14:25:56.937Z,10.29
2023-03-10T14:28:26.769Z,10.27
2023-03-10T14:30:56.091Z,10.29
2023-03-10T14:33:24.003Z,10.23
2023-03-10T14:35:51.848Z,10.18
2023-03-10T14:38:19.596Z,10.34
2023-03-10T14:40:48.747Z,10.45
2023-03-10T14:43:18.548Z,10.34
2023-03-10T14:45:46.825Z,10.37
2023-03-10T14:48:18.081Z,10.40
2023-03-10T14:50:46.029Z,10.29
2023-03-10T14:53:15.289Z,10.19
2023-03-10T14:55:44.638Z,10.04
2023-03-10T14:58:13.670Z,9.91
2023-03-10T15:00:41.278Z,9.94
2023-03-10T15:03:10.588Z,9.89
2023-03-10T15:05:48.402Z,9.78
2023-03-10T15:08:17.237Z,9.57
2023-03-10T15:10:48.037Z,9.42
2023-03-10T15:13:16.099Z,9.27
2023-03-10T15:15:45.608Z,9.23
2023-03-10T15:18:14.931Z,8.97
2023-03-10T15:20:44.243Z,9.09
2023-03-10T15:23:16.509Z,9.19
2023-03-10T15:25:46.354Z,9.13
2023-03-10T15:28:14.302Z,9.13
2023-03-10T15:30:42.061Z,9.18
2023-03-10T15:33:10.697Z,9.36
2023-03-10T15:35:38.560Z,9.48
2023-03-10T15:38:07.819Z,9.42
2023-03-10T15:40:36.250Z,9.37
2023-03-10T15:43:03.861Z,9.30
2023-03-10T15:45:32.296Z,9.20
2023-03-10T15:47:59.972Z,8.88
2023-03-10T15:50:28.204Z,8.70
2023-03-10T15:52:57.035Z,8.69
2023-03-10T15:55:26.647Z,8.60
2023-03-10T15:57:55.061Z,8.54
2023-03-10T16:00:24.224Z,8.44
2023-03-10T16:02:52.142Z,8.43
2023-03-10T16:05:20.379Z,8.34
2023-03-10T16:07:47.960Z,8.36
2023-03-10T16:10:17.295Z,8.36
2023-03-10T16:12:46.457Z,8.27
2023-03-10T16:15:17.593Z,8.23
2023-03-10T16:17:45.779Z,8.16
2023-03-10T16:20:14.644Z,8.13
2023-03-10T16:22:43.123Z,8.10
2023-03-10T16:25:15.085Z,8.13
2023-03-10T16:27:42.858Z,8.08
2023-03-10T16:30:13.458Z,8.13
2023-03-10T16:32:41.042Z,8.14
2023-03-10T16:35:09.859Z,8.02
2023-03-10T16:37:37.419Z,8.00
2023-03-10T16:40:07.224Z,8.00
2023-03-10T16:42:36.726Z,7.83
2023-03-10T16:45:04.570Z,7.95
2023-03-10T16:47:33.942Z,7.79
2023-03-10T16:50:01.609Z,7.73
2023-03-10T16:52:29.189Z,7.59
2023-03-10T16:54:58.115Z,7.58
2023-03-10T16:57:25.891Z,7.55
2023-03-10T16:59:53.458Z,7.49
2023-03-10T17:02:21.072Z,7.46
2023-03-10T17:04:50.016Z,7.43
2023-03-10T17:07:19.182Z,7.34
2023-03-10T17:09:46.822Z,7.34
2023-03-10T17:12:14.575Z,7.39
2023-03-10T17:14:43.871Z,7.39
2023-03-10T17:17:11.464Z,7.33
2023-03-10T17:19:39.042Z,7.20
2023-03-10T17:22:07.936Z,7.04
2023-03-10T17:24:35.508Z,7.24
2023-03-10T17:27:03.111Z,7.09
2023-03-10T17:29:31.201Z,7.10
2023-03-10T17:31:58.808Z,7.07
2023-03-10T17:34:27.072Z,7.13
2023-03-10T17:36:54.638Z,6.97
2023-03-10T17:39:23.952Z,6.95
2023-03-10T17:41:51.663Z,6.94
2023-03-10T17:44:19.531Z,6.87
2023-03-10T17:46:47.343Z,6.85
2023-03-10T17:49:15.880Z,6.75
2023-03-10T17:51:44.592Z,6.66
2023-03-10T17:54:13.893Z,6.51
2023-03-10T17:56:43.107Z,6.55
2023-03-10T17:59:12.631Z,6.51
2023-03-10T18:01:40.270Z,6.51
2023-03-10T18:04:07.970Z,6.34
2023-03-10T18:06:36.672Z,6.29
2023-03-10T18:09:06.537Z,6.10
2023-03-10T18:11:34.844Z,6.03
2023-03-10T18:14:04.167Z,5.95
2023-03-10T18:16:33.542Z,5.91
2023-03-10T18:19:01.371Z,5.76
2023-03-10T18:21:29.318Z,5.61
2023-03-10T18:23:57.375Z,5.68
2023-03-10T18:26:27.501Z,5.46
2023-03-10T18:28:55.109Z,5.29
2023-03-10T18:31:26.551Z,5.14
2023-03-10T18:33:57.682Z,5.18
2023-03-10T18:36:25.745Z,5.00
2023-03-10T18:38:54.292Z,4.94
2023-03-10T18:41:23.777Z,4.89
2023-03-10T18:43:51.538Z,4.69
2023-03-10T18:46:19.229Z,4.61
2023-03-10T18:48:48.232Z,4.55
2023-03-10T18:51:15.812Z,4.45
2023-03-10T18:53:45.022Z,4.41
2023-03-10T18:56:12.660Z,4.34
2023-03-10T18:58:40.300Z,4.15
2023-03-10T19:03:58.807Z,4.02
2023-03-10T19:06:30.885Z,3.91
2023-03-10T19:08:58.445Z,3.82
2023-03-10T19:11:27.760Z,3.83
2023-03-10T19:13:55.506Z,3.77
2023-03-10T19:16:23.112Z,3.66
2023-03-10T19:18:50.729Z,3.67
2023-03-10T19:21:21.941Z,3.45
2023-03-10T19:23:50.346Z,3.51
2023-03-10T19:26:17.893Z,3.43
2023-03-10T19:28:45.503Z,3.31
2023-03-10T19:31:14.847Z,3.18
2023-03-10T19:33:43.024Z,3.12
2023-03-10T19:36:12.576Z,3.26
2023-03-10T19:38:42.886Z,3.09
2023-03-10T19:41:13.058Z,3.08
2023-03-10T19:43:40.649Z,3.04
2023-03-10T19:46:09.413Z,3.09
2023-03-10T19:48:37.149Z,3.08
2023-03-10T19:51:05.797Z,3.06
2023-03-10T19:53:33.651Z,2.98
2023-03-10T19:56:04.607Z,3.00
2023-03-10T19:58:32.780Z,3.03
2023-03-10T20:01:00.950Z,3.00
2023-03-10T20:03:31.215Z,3.10
2023-03-10T20:05:58.880Z,2.93
2023-03-10T20:08:26.512Z,3.03
2023-03-10T20:10:55.455Z,3.00
2023-03-10T20:13:24.380Z,2.88
2023-03-10T20:15:51.941Z,2.90
2023-03-10T20:18:21.080Z,2.88
2023-03-10T20:20:48.742Z,2.87
2023-03-10T20:23:16.791Z,2.92
2023-03-10T20:25:45.595Z,2.87
2023-03-10T20:28:14.108Z,2.89
2023-03-10T20:30:43.081Z,2.84
2023-03-10T20:33:10.722Z,2.79
2023-03-10T20:35:38.702Z,2.76
2023-03-10T20:38:06.576Z,2.82
2023-03-10T20:40:34.312Z,2.77
2023-03-10T20:43:01.911Z,2.75
2023-03-10T20:45:29.504Z,2.74
2023-03-10T20:47:58.954Z,2.74
2023-03-10T20:50:27.065Z,2.67
2023-03-10T20:52:55.023Z,2.80
2023-03-10T20:55:24.253Z,2.70
2023-03-10T20:57:53.004Z,2.79
2023-03-10T21:00:22.688Z,2.72
2023-03-10T21:02:52.571Z,2.76
2023-03-10T21:05:22.067Z,2.75
2023-03-10T21:07:49.933Z,2.75
2023-03-10T21:10:17.850Z,2.71
2023-03-10T21:12:45.651Z,2.79
2023-03-10T21:15:15.898Z,2.74
2023-03-10T21:17:43.938Z,2.70
2023-03-10T21:20:12.690Z,2.80
2023-03-10T21:22:41.770Z,2.76
2023-03-10T21:25:12.871Z,2.73
2023-03-10T21:27:40.493Z,2.64
2023-03-10T21:30:12.706Z,2.65
2023-03-10T21:32:40.429Z,2.65
2023-03-10T21:35:11.096Z,2.60
2023-03-10T21:37:41.757Z,2.61
2023-03-10T21:40:14.818Z,2.66
2023-03-10T21:42:42.746Z,2.75
2023-03-10T21:45:12.912Z,2.60
2023-03-10T21:47:40.586Z,2.67
2023-03-10T21:50:09.489Z,2.62
2023-03-10T21:52:37.100Z,2.51
2023-03-10T21:55:05.140Z,2.64
2023-03-10T21:57:34.109Z,2.35
2023-03-10T22:00:01.715Z,2.41
2023-03-10T22:02:31.185Z,2.35
2023-03-10T22:04:58.812Z,2.40
2023-03-10T22:07:26.428Z,2.28
2023-03-10T22:09:54.020Z,2.31
2023-03-10T22:12:21.601Z,2.30
2023-03-10T22:14:55.980Z,2.19
2023-03-10T22:17:23.654Z,2.10
2023-03-10T22:19:52.004Z,2.02
2023-03-10T22:22:19.559Z,2.10
2023-03-10T22:24:47.327Z,2.10
2023-03-10T22:27:15.064Z,2.10
2023-03-10T22:29:43.488Z,2.16
2023-03-10T22:32:12.627Z,2.06
2023-03-10T22:34:40.268Z,2.21
2023-03-10T22:37:07.860Z,2.20
2023-03-10T22:39:37.635Z,2.25
2023-03-10T22:42:05.780Z,2.25
2023-03-10T22:44:35.538Z,2.25
2023-03-10T22:47:03.410Z,2.21
2023-03-10T22:49:33.012Z,2.23
2023-03-10T22:52:00.650Z,2.26
2023-03-10T22:54:28.475Z,2.19
2023-03-10T22:56:56.108Z,2.10
2023-03-10T22:59:23.705Z,2.03
2023-03-10T23:01:51.349Z,1.97
2023-03-10T23:04:19.487Z,2.02
2023-03-10T23:06:48.411Z,1.91
2023-03-10T23:09:15.987Z,2.06
2023-03-10T23:11:43.612Z,1.93
2023-03-10T23:14:11.821Z,1.74
2023-03-10T23:16:39.552Z,1.70
2023-03-10T23:19:08.753Z,1.55
2023-03-10T23:21:36.580Z,1.57
2023-03-10T23:24:06.234Z,1.49
2023-03-10T23:26:35.075Z,1.48
2023-03-10T23:29:03.154Z,1.38
2023-03-10T23:31:30.803Z,1.29
2023-03-10T23:33:58.362Z,1.20
2023-03-10T23:36:25.994Z,1.13
2023-03-10T23:38:53.599Z,1.15
2023-03-10T23:41:22.679Z,1.10
2023-03-10T23:43:51.584Z,1.13
2023-03-10T23:46:21.770Z,0.97
2023-03-10T23:48:49.795Z,0.94
2023-03-10T23:51:18.246Z,0.95
2023-03-10T23:53:46.095Z,0.93
2023-03-10T23:56:13.784Z,1.06
2023-03-10T23:58:42.737Z,1.07
